Everett, WA (98201)

1:15 AM PST on November 29, 2014 (GMT -0800)
harborview, everett, wa | Change Station
CLOSE
Current Station
Personal Weather Station
Location: Everett, WA
Elevation: 85 ft
Nearby Weather Stations

Elev 85 ft 47.96 °N, 122.25 °W | Updated 3 minutes ago

Rain
Rain
34.3 °F
Feels Like 34 °F
N
3.0
Wind Variable Wind from WNW
Gusts 9.0 mph

Today
High -- | Low -- °F
--% Chance of Precip.
Yesterday
High -- | Low -- °F
Precip. -- in
7:35 AM 4:18 PM
Waxing Crescent, 49% visible
Pressure 29.53 in
Visibility 3.0 miles
Clouds Mostly Cloudy 300 ft
Mostly Cloudy 700 ft
Overcast 1700 ft
Windchill 34 °F
Dew Point 34 °F
Humidity 98%
Rainfall 0.00 in
Snow Depth Not available.
UV 0 out of 12
Pollen .10 out of 12
Air Quality Not available.
Flu Activity Not available.
SPECI KPAE 290902Z AUTO 35007KT 3SM -SN BR BKN003 BKN007 OVC017 01/M01 A2953 RMK AO2 P0000 T00061006

More Conditions Fewer Conditions

Pressure 29.53 in
Visibility 3.0 miles
Clouds Mostly Cloudy 300 ft
Mostly Cloudy 700 ft
Overcast 1700 ft
Windchill 34 °F
Dew Point 34 °F
Humidity 98%
Rainfall 0.00 in
Snow Depth Not available.
UV 0 out of 12
Pollen .10 out of 12
Air Quality Not available.
Flu Activity Not available.
SPECI KPAE 290902Z AUTO 35007KT 3SM -SN BR BKN003 BKN007 OVC017 01/M01 A2953 RMK AO2 P0000 T00061006

More Conditions Fewer Conditions

10-Day Weather Forecast

Almanac

Astronomy

Nov. 29, 2014 Rise Set
Actual Time
Civil Twilight
Nautical Twilight
Astronomical Twilight
Moon
Length of Visible Light
Length of Day
Tomorrow will be .
, % of the Moon is Illuminated

Today's Extremes

State Highs State Lows

Community

WunderPhotos

Upload Photos

1,774,442 photos uploaded!

WunderBlogs® & News

Nearby

Air Quality

  Air Quality AQ Index Pollutant
Not available.

Snow Depth

Station Depth Elevation

Earthquake Activity

City Distance Mag. Time & Date
Minimum magnitude displayed is 2.5.

Coastal Water Temperatures

Place Temperature

Nearby Weather Stations